Time;durP1;ratioP1;P1;durP2;ratioP2;P2;SDS_P1;SDS_P2;PMS_P1;PMS_P2;Temp;Humidity;BMP_temperature;BMP_pressure;BME280_temperature;BME280_humidity;BME280_pressure;Samples;Min_cycle;Max_cycle;Signal;HPM_P1;HPM_P2
2022/07/27 00:01:50;;;;;;;12.82;1.42;;;12.60;99.90;;;11.57;88.12;101079.31;4924734;28;19960;-79
2022/07/27 00:04:17;;;;;;;8.45;1.30;;;12.60;99.90;;;11.53;88.63;101067.19;4945277;28;20046;-82
2022/07/27 00:06:43;;;;;;;8.75;1.60;;;12.60;99.90;;;11.48;88.39;101072.69;4958341;28;20034;-80
2022/07/27 00:09:10;;;;;;;11.40;1.40;;;12.50;99.90;;;11.44;88.43;101075.53;4926340;28;20027;-81
2022/07/27 00:11:35;;;;;;;11.20;2.00;;;12.50;99.90;;;11.41;88.98;101073.88;4972102;28;20035;-82
2022/07/27 00:14:11;;;;;;;9.43;1.45;;;12.50;99.90;;;11.38;88.63;101071.41;4966469;28;20062;-80
2022/07/27 00:16:37;;;;;;;16.23;2.13;;;12.40;99.90;;;11.36;89.25;101069.72;4944222;28;20518;-81
2022/07/27 00:19:03;;;;;;;;;;;12.40;99.90;;;11.31;89.20;101071.72;4930168;28;20052;-80
2022/07/27 00:21:37;;;;;;;13.10;2.03;;;12.40;99.90;;;11.32;89.58;101076.06;4934004;28;19967;-81
2022/07/27 00:24:03;;;;;;;7.32;1.17;;;12.40;99.90;;;11.33;89.54;101075.16;4928641;28;20606;-81
2022/07/27 00:26:29;;;;;;;7.95;1.52;;;12.40;99.90;;;11.33;89.39;101078.63;4927476;28;20183;-81
2022/07/27 00:28:54;;;;;;;;;;;12.40;99.90;;;11.28;89.61;101086.75;4956212;28;20037;-80
2022/07/27 00:31:25;;;;;;;7.70;1.17;;;12.40;99.90;;;11.29;89.64;101088.47;4957240;28;19915;-81
2022/07/27 00:33:51;;;;;;;14.30;1.70;;;12.40;99.90;;;11.37;90.15;101082.84;4924449;28;20034;-80
2022/07/27 00:36:17;;;;;;;9.20;1.42;;;12.50;99.90;;;11.45;90.03;101083.38;4929622;28;20049;-80
2022/07/27 00:38:43;;;;;;;8.20;1.20;;;12.50;99.90;;;11.56;89.79;101096.09;4956219;28;20037;-80
2022/07/27 00:41:10;;;;;;;5.82;1.25;;;12.60;99.90;;;11.65;89.51;101095.66;4946669;28;20584;-81
2022/07/27 00:43:56;;;;;;;8.65;1.10;;;12.70;99.90;;;11.77;89.19;101093.38;4943950;28;20038;-80
2022/07/27 00:46:24;;;;;;;10.10;1.27;;;12.80;99.90;;;11.83;89.27;101088.69;4944910;28;20496;-80
2022/07/27 00:48:50;;;;;;;7.68;1.17;;;12.90;99.90;;;11.92;89.39;101071.59;4971641;28;20047;-82
2022/07/27 00:51:18;;;;;;;7.35;1.17;;;12.90;99.90;;;11.99;88.89;101082.75;4954860;28;20097;-81
2022/07/27 00:53:53;;;;;;;9.38;1.40;;;13.00;99.90;;;12.04;88.48;101073.66;4914884;28;20046;-81
2022/07/27 00:56:20;;;;;;;11.30;1.88;;;13.00;99.90;;;12.06;88.72;101069.19;4919168;28;20043;-81
2022/07/27 00:58:57;;;;;;;9.85;1.20;;;13.10;99.90;;;12.07;88.27;101080.59;4969675;28;20045;-81
2022/07/27 01:01:23;;;;;;;10.23;1.40;;;13.10;99.90;;;12.06;87.93;101082.38;4937626;28;20573;-79
2022/07/27 01:03:49;;;;;;;16.40;2.05;;;13.10;99.90;;;12.11;88.14;101087.44;4963836;28;20058;-81
2022/07/27 01:06:15;;;;;;;;;;;13.10;99.90;;;12.06;88.61;101089.44;4928803;28;20483;-80
2022/07/27 01:08:48;;;;;;;9.80;1.40;;;13.10;99.90;;;12.07;87.85;101086.75;4935860;28;19914;-80
2022/07/27 01:11:14;;;;;;;9.43;1.42;;;13.10;99.90;;;12.07;87.72;101081.47;4942537;28;20077;-81
2022/07/27 01:13:42;;;;;;;8.35;1.23;;;13.10;99.90;;;12.08;88.32;101088.44;4948448;28;20073;-80
2022/07/27 01:16:15;;;;;;;12.07;1.80;;;13.10;99.90;;;12.09;88.61;101079.59;4935468;28;20061;-80
2022/07/27 01:18:42;;;;;;;12.95;1.75;;;13.10;99.90;;;12.11;88.71;101076.88;4919325;28;20322;-80
2022/07/27 01:21:08;;;;;;;11.07;1.73;;;13.10;99.90;;;12.10;88.31;101076.03;4943656;28;20045;-80
2022/07/27 01:23:35;;;;;;;10.48;1.55;;;13.20;99.90;;;12.14;88.04;101083.78;4949234;28;20776;-80
2022/07/27 01:26:06;;;;;;;13.95;1.40;;;13.20;99.90;;;12.18;88.10;101080.06;4934852;28;20055;-81
2022/07/27 01:28:32;;;;;;;8.13;1.27;;;13.20;99.90;;;12.20;87.84;101080.84;4908414;28;20041;-81
2022/07/27 01:30:58;;;;;;;13.48;1.75;;;13.20;99.90;;;12.22;87.77;101081.66;4985866;28;20034;-81
2022/07/27 01:33:26;;;;;;;10.25;1.85;;;13.30;99.90;;;12.25;88.21;101084.16;4955515;28;20426;-80
2022/07/27 01:35:58;;;;;;;8.82;1.70;;;13.30;99.90;;;12.26;88.15;101086.69;4948870;28;20068;-81
2022/07/27 01:38:24;;;;;;;6.90;1.58;;;13.30;99.90;;;12.27;88.52;101087.56;4917273;28;20050;-80
2022/07/27 01:40:53;;;;;;;9.15;1.77;;;13.30;99.90;;;12.26;87.97;101091.97;4942434;28;20130;-81
2022/07/27 01:43:19;;;;;;;11.35;1.52;;;13.30;99.90;;;12.27;88.10;101093.72;4962733;28;20439;-83
2022/07/27 01:45:51;;;;;;;12.75;1.60;;;13.30;99.90;;;12.30;88.21;101090.06;4938201;28;20035;-80
2022/07/27 01:48:17;;;;;;;12.63;1.30;;;13.30;99.90;;;12.34;88.07;101090.78;4901405;28;20034;-81
2022/07/27 01:50:42;;;;;;;9.25;1.20;;;13.40;99.90;;;12.37;87.92;101090.63;4917707;28;20069;-80
2022/07/27 01:53:08;;;;;;;12.02;1.58;;;13.40;99.90;;;12.39;88.82;101084.31;4909740;28;20023;-80
2022/07/27 01:55:34;;;;;;;9.63;1.60;;;13.40;99.90;;;12.38;89.09;101081.78;4941708;28;20048;-80
2022/07/27 01:58:02;;;;;;;14.60;1.65;;;13.40;99.90;;;12.37;88.94;101088.81;4953607;28;20124;-81
2022/07/27 02:00:30;;;;;;;9.65;1.58;;;13.40;99.90;;;12.37;89.09;101099.38;4934461;28;20109;-81
2022/07/27 02:02:56;;;;;;;9.80;1.40;;;13.40;99.90;;;12.37;89.52;101091.47;4961347;28;20085;-80
2022/07/27 02:05:22;;;;;;;10.27;1.27;;;13.40;99.90;;;12.36;89.30;101091.56;4917845;28;20062;-80
2022/07/27 02:07:48;;;;;;;10.27;1.48;;;13.40;99.90;;;12.36;89.03;101089.78;4950261;28;20043;-82
2022/07/27 02:10:14;;;;;;;12.68;2.00;;;13.40;99.90;;;12.38;90.06;101080.00;4960735;28;20104;-80
2022/07/27 02:12:40;;;;;;;14.55;1.98;;;13.40;99.90;;;12.38;89.33;101081.78;4916742;28;20038;-81
2022/07/27 02:15:14;;;;;;;6.78;1.23;;;13.40;99.90;;;12.40;89.50;101088.69;4948884;28;20027;-81
2022/07/27 02:17:40;;;;;;;19.55;1.50;;;13.40;99.90;;;12.42;89.70;101085.94;4943530;28;20030;-80
2022/07/27 02:20:16;;;;;;;12.75;1.55;;;13.40;99.90;;;12.43;89.39;101071.84;4917427;28;20093;-81
2022/07/27 02:22:43;;;;;;;7.23;1.20;;;13.40;99.90;;;12.43;89.79;101067.41;4926330;28;20034;-81
2022/07/27 02:25:11;;;;;;;11.00;1.52;;;13.40;99.90;;;12.45;89.15;101067.34;4942119;28;20470;-82
2022/07/27 02:27:45;;;;;;;12.02;1.58;;;13.50;99.90;;;12.48;89.45;101075.09;4926187;28;20700;-80
2022/07/27 02:30:12;;;;;;;10.30;1.50;;;13.50;99.90;;;12.49;90.09;101075.03;4918753;28;20395;-81
2022/07/27 02:32:41;;;;;;;15.15;1.88;;;13.50;99.90;;;12.49;89.57;101072.38;4929984;28;20026;-81
2022/07/27 02:35:09;;;;;;;15.45;2.00;;;13.50;99.90;;;12.53;90.13;101075.75;4906639;28;20056;-80
2022/07/27 02:37:35;;;;;;;12.98;1.65;;;13.50;99.90;;;12.54;90.28;101069.53;4918564;28;20031;-80
2022/07/27 02:40:01;;;;;;;8.43;1.55;;;13.60;99.90;;;12.55;90.82;101070.38;4922174;28;20035;-79
2022/07/27 02:42:26;;;;;;;;;;;13.60;99.90;;;12.50;91.48;101068.84;4957114;28;20484;-81
2022/07/27 02:44:52;;;;;;;8.15;1.35;;;13.50;99.90;;;12.51;90.79;101073.16;4958146;28;19995;-80
2022/07/27 02:47:18;;;;;;;;;;;13.50;99.90;;;12.50;90.68;101068.84;4945815;28;20116;-81
2022/07/27 02:49:53;;;;;;;13.95;1.75;;;13.50;99.90;;;12.49;90.21;101076.81;4943217;28;19920;-80
2022/07/27 02:52:19;;;;;;;7.43;1.55;;;13.50;99.90;;;12.49;90.46;101082.94;4953474;28;20034;-81
2022/07/27 02:54:44;;;;;;;5.40;1.17;;;13.50;99.90;;;12.52;90.84;101084.59;4929442;23;20046;-82
2022/07/27 02:57:10;;;;;;;7.28;1.23;;;13.50;99.90;;;12.54;91.39;101079.25;4955251;28;20042;-82
2022/07/27 02:59:45;;;;;;;;;;;13.50;99.90;;;12.52;91.30;101077.50;4889417;28;20090;-80
2022/07/27 03:02:11;;;;;;;8.55;1.35;;;13.60;99.90;;;12.57;91.89;101085.25;4921210;28;19918;-81
2022/07/27 03:04:37;;;;;;;9.82;1.30;;;13.60;99.90;;;12.62;91.32;101087.66;4925154;28;20038;-81
2022/07/27 03:07:03;;;;;;;10.73;1.63;;;13.60;99.90;;;12.68;91.32;101090.84;4883244;28;20109;-81
2022/07/27 03:09:35;;;;;;;7.13;1.02;;;13.70;99.90;;;12.72;91.38;101086.22;4917757;28;20039;-82
2022/07/27 03:12:02;;;;;;;9.85;1.27;;;13.70;99.90;;;12.69;91.19;101091.69;4919701;28;20691;-80
2022/07/27 03:14:27;;;;;;;14.20;1.40;;;13.70;99.90;;;12.75;91.08;101098.47;4916724;23;20050;-82
2022/07/27 03:16:53;;;;;;;8.60;1.30;;;13.70;99.90;;;12.76;91.01;101095.72;4990930;28;20065;-82
2022/07/27 03:19:19;;;;;;;9.60;1.52;;;13.70;99.90;;;12.74;91.35;101094.94;4966741;28;20092;-82
2022/07/27 03:21:53;;;;;;;;;;;13.70;99.90;;;12.75;91.24;101090.53;5007855;28;20060;-80
2022/07/27 03:24:19;;;;;;;11.25;1.15;;;13.80;99.90;;;12.78;91.27;101093.84;4953191;28;19913;-83
2022/07/27 03:26:45;;;;;;;14.25;1.73;;;13.80;99.90;;;12.83;90.57;101086.56;4995982;28;20055;-80
2022/07/27 03:29:12;;;;;;;5.60;1.25;;;13.90;99.90;;;12.89;90.08;101085.41;4999915;28;21495;-81
2022/07/27 03:31:38;;;;;;;8.43;1.35;;;13.90;99.90;;;12.96;89.50;101083.28;5004736;28;20045;-82
2022/07/27 03:34:06;;;;;;;11.75;1.83;;;13.90;99.90;;;13.01;89.68;101081.28;4953923;28;20048;-81
2022/07/27 03:36:32;;;;;;;9.20;1.20;;;13.90;99.90;;;13.05;89.56;101090.78;4970940;28;20034;-82
2022/07/27 03:38:57;;;;;;;12.45;1.10;;;14.00;99.90;;;13.08;88.93;101085.31;4979865;28;20054;-80
2022/07/27 03:41:23;;;;;;;;;;;14.00;99.90;;;13.03;88.86;101085.56;5001867;28;20040;-80
2022/07/27 03:43:49;;;;;;;9.95;1.23;;;14.00;99.90;;;13.04;88.81;101081.97;4995047;28;19970;-82
2022/07/27 03:46:14;;;;;;;;;;;14.10;99.90;;;13.04;89.16;101078.47;4995910;28;20114;-81
2022/07/27 03:48:42;;;;;;;11.70;1.60;;;14.10;99.90;;;13.05;88.95;101083.69;4995342;28;20373;-82
2022/07/27 03:51:11;;;;;;;11.85;1.38;;;14.10;99.90;;;13.09;89.11;101087.91;4941874;28;20021;-82
2022/07/27 03:53:37;;;;;;;9.38;1.33;;;14.10;99.90;;;13.12;88.87;101082.44;5007793;28;20026;-81
2022/07/27 03:56:03;;;;;;;12.35;1.60;;;14.10;99.90;;;13.16;88.70;101083.13;4966127;28;20056;-80
2022/07/27 03:58:28;;;;;;;;;;;14.20;99.90;;;13.14;89.47;101079.72;4988454;28;20049;-81
2022/07/27 04:00:54;;;;;;;13.85;1.88;;;14.20;99.90;;;13.17;89.17;101089.28;4995834;28;20454;-80
2022/07/27 04:03:29;;;;;;;;;;;14.20;99.90;;;13.20;88.95;101089.13;4992846;28;20052;-82
2022/07/27 04:05:54;;;;;;;11.23;1.42;;;14.20;99.90;;;13.22;89.10;101089.91;4991271;28;20016;-82
2022/07/27 04:08:20;;;;;;;9.52;1.52;;;14.30;99.90;;;13.23;89.12;101083.69;4967572;28;20118;-81
2022/07/27 04:10:46;;;;;;;;;;;14.30;99.90;;;13.22;89.19;101093.41;4958102;28;20044;-80
2022/07/27 04:13:20;;;;;;;16.17;2.50;;;14.20;99.90;;;13.26;89.01;101086.16;4979350;28;20280;-81
2022/07/27 04:15:48;;;;;;;9.80;1.50;;;14.30;99.90;;;13.31;88.45;101084.16;4968219;23;20050;-80
2022/07/27 04:18:14;;;;;;;13.52;1.77;;;14.30;99.90;;;13.34;88.03;101076.91;4955022;28;20030;-81
2022/07/27 04:20:40;;;;;;;8.77;1.50;;;14.30;99.90;;;13.42;87.88;101091.53;4929670;28;20117;-82
2022/07/27 04:23:11;;;;;;;12.25;1.92;;;14.50;99.90;;;13.59;87.38;101091.50;4950667;28;20031;-81
2022/07/27 04:25:37;;;;;;;8.95;1.73;;;14.70;99.90;;;13.89;86.23;101088.16;4959038;28;20058;-80
2022/07/27 04:28:02;;;;;;;13.15;1.73;;;14.80;99.90;;;14.04;85.32;101084.66;4966408;28;20032;-81
2022/07/27 04:30:28;;;;;;;;;;;14.80;99.90;;;14.08;84.69;101083.53;4958192;28;20054;-81
2022/07/27 04:32:54;;;;;;;16.83;1.75;;;14.90;99.90;;;14.14;84.59;101080.53;4966969;28;20388;-81
2022/07/27 04:35:20;;;;;;;;;;;15.00;99.90;;;14.18;83.96;101089.16;4955812;28;20044;-81
2022/07/27 04:37:53;;;;;;;12.13;1.63;;;15.20;99.90;;;14.43;82.55;101088.66;4955106;28;19914;-82
2022/07/27 04:40:19;;;;;;;10.75;1.15;;;15.40;99.90;;;15.39;80.62;101091.88;4984989;28;20514;-80
2022/07/27 04:42:45;;;;;;;9.10;1.65;;;16.70;99.90;;;17.74;71.06;101102.22;4966883;28;20116;-80
2022/07/27 04:45:10;;;;;;;;;;;17.00;99.90;;;20.19;62.82;101092.59;4940191;28;20181;-80
2022/07/27 04:47:44;;;;;;;10.68;1.70;;;20.00;99.90;;;21.73;56.53;101101.09;4964056;28;19971;-80
2022/07/27 04:50:09;;;;;;;9.05;1.70;;;20.20;99.90;;;20.33;58.28;101102.19;4939960;28;20068;-82
2022/07/27 04:52:35;;;;;;;;;;;20.20;99.90;;;20.90;56.04;101114.41;4988390;28;20525;-80
2022/07/27 04:55:01;;;;;;;9.50;1.67;;;20.10;99.90;;;19.42;60.07;101104.91;5001350;23;20422;-83
2022/07/27 04:57:27;;;;;;;12.82;1.83;;;19.50;99.90;;;18.42;62.60;101101.75;4974244;28;20049;-81
2022/07/27 04:59:58;;;;;;;6.97;1.50;;;18.90;99.90;;;17.65;65.10;101114.38;5000959;28;20057;-81
2022/07/27 05:02:25;;;;;;;10.48;1.23;;;18.40;99.90;;;17.07;66.97;101107.75;4991291;28;20124;-80
2022/07/27 05:04:51;;;;;;;10.93;1.75;;;17.90;99.90;;;16.67;68.73;101105.06;4946950;28;20121;-82
2022/07/27 05:07:17;;;;;;;9.63;1.25;;;17.50;99.90;;;16.33;70.23;101099.31;4954800;28;20042;-81
2022/07/27 05:09:43;;;;;;;8.75;1.40;;;17.30;99.90;;;16.18;70.59;101107.31;4950363;28;20037;-80
2022/07/27 05:12:11;;;;;;;9.32;1.55;;;17.50;99.90;;;18.19;67.16;101118.56;5016782;28;20033;-81
2022/07/27 05:14:40;;;;;;;6.85;1.35;;;19.10;99.90;;;22.97;54.09;101140.06;4965436;28;20058;-81
2022/07/27 05:17:05;;;;;;;6.97;1.42;;;20.80;99.90;;;24.13;50.41;101139.78;4943005;28;20102;-80
2022/07/27 05:19:32;;;;;;;;;;;21.10;99.90;;;28.04;43.69;101149.06;4959756;28;20497;-82
2022/07/27 05:21:59;;;;;;;7.95;1.25;;;24.40;96.20;;;26.99;43.62;101133.66;4955106;28;19964;-81
2022/07/27 05:24:32;;;;;;;11.48;1.23;;;25.00;95.30;;;27.37;42.92;101147.53;4956448;28;20054;-81
2022/07/27 05:26:58;;;;;;;9.75;1.55;;;24.90;94.40;;;25.21;45.67;101145.28;4949283;28;20046;-82
2022/07/27 05:29:24;;;;;;;;;;;24.80;94.90;;;23.95;46.85;101144.25;4938762;28;20065;-80
2022/07/27 05:31:50;;;;;;;11.93;1.60;;;23.50;94.30;;;22.44;51.31;101138.59;4974026;28;19980;-81
2022/07/27 05:34:15;;;;;;;;;;;22.60;95.00;;;21.07;52.58;101135.25;4959533;28;20498;-81
2022/07/27 05:36:41;;;;;;;9.25;1.50;;;21.80;96.70;;;20.35;56.00;101141.22;4970637;28;19917;-81
2022/07/27 05:39:07;;;;;;;;;;;21.60;97.60;;;19.91;56.08;101148.28;4965275;28;20052;-80
2022/07/27 05:41:35;;;;;;;11.52;1.42;;;21.30;98.10;;;23.40;51.33;101162.94;4944330;28;19928;-83
2022/07/27 05:44:01;;;;;;;8.07;1.25;;;22.70;97.50;;;27.37;43.29;101179.97;4914694;28;20058;-81
2022/07/27 05:46:27;;;;;;;9.48;1.60;;;24.60;95.00;;;30.05;38.92;101183.03;4908884;28;20047;-81
2022/07/27 05:48:53;;;;;;;;;;;25.50;93.70;;;30.61;36.57;101185.22;4923022;28;20038;-81
2022/07/27 05:51:18;;;;;;;7.65;1.80;;;27.20;90.70;;;28.36;39.70;101188.66;4946191;28;19933;-82
2022/07/27 05:53:51;;;;;;;;;;;26.80;90.10;;;26.33;41.13;101178.63;4918452;28;20034;-80
2022/07/27 05:56:17;;;;;;;7.70;1.65;;;25.90;90.10;;;25.33;44.37;101186.28;4934706;28;19941;-82
2022/07/27 05:58:43;;;;;;;10.30;1.85;;;25.10;91.00;;;24.08;46.48;101184.25;4946479;28;20073;-80
2022/07/27 06:01:09;;;;;;;7.00;1.38;;;24.00;91.90;;;22.41;49.74;101184.50;4994498;28;20054;-82
2022/07/27 06:03:36;;;;;;;;;;;23.90;93.30;;;21.18;51.71;101181.69;4955840;28;20064;-81
2022/07/27 06:08:46;;;;;;;10.85;1.67;;;20.80;96.10;;;18.59;59.34;101184.97;4959878;28;20045;-81
2022/07/27 06:11:13;;;;;;;10.77;1.42;;;20.00;97.30;;;18.17;60.59;101197.78;4945167;28;20472;-80
2022/07/27 06:13:39;;;;;;;11.98;1.52;;;19.50;98.60;;;17.81;62.12;101199.38;4913573;28;20038;-82
2022/07/27 06:16:05;;;;;;;;;;;19.20;99.10;;;17.60;62.17;101199.03;4967584;28;20120;-80
2022/07/27 06:18:30;;;;;;;11.77;1.63;;;18.80;99.80;;;17.52;62.95;101185.41;4977927;28;20412;-81
2022/07/27 06:21:04;;;;;;;;;;;18.70;99.90;;;17.36;62.40;101181.13;4965520;28;20046;-80
2022/07/27 06:23:30;;;;;;;8.70;1.35;;;18.40;99.90;;;17.49;63.51;101193.59;4973473;28;19992;-82
2022/07/27 06:25:56;;;;;;;5.95;1.30;;;18.40;99.90;;;17.65;62.34;101185.44;4937271;28;20506;-80
2022/07/27 06:28:22;;;;;;;7.55;1.38;;;18.50;99.90;;;17.96;62.03;101193.00;4938371;28;20651;-80
2022/07/27 06:30:48;;;;;;;11.32;1.38;;;18.70;99.90;;;18.51;61.20;101188.22;4957844;28;20140;-80
2022/07/27 06:33:19;;;;;;;;;;;19.10;99.90;;;19.22;59.76;101193.66;4960433;28;20073;-80
2022/07/27 06:35:44;;;;;;;10.07;1.35;;;19.50;99.90;;;19.50;58.48;101192.41;4962992;28;19921;-80
2022/07/27 06:38:10;;;;;;;;;;;19.50;99.90;;;19.74;58.08;101192.38;4952553;28;20065;-80
2022/07/27 06:40:36;;;;;;;9.95;1.60;;;20.10;99.80;;;20.16;56.92;101194.47;4943950;28;19951;-78
2022/07/27 06:43:02;;;;;;;;;;;20.10;99.90;;;20.22;56.98;101199.31;4950041;28;20565;-80
2022/07/27 06:45:27;;;;;;;12.20;2.08;;;20.50;99.30;;;20.33;56.96;101199.31;4913595;28;19925;-80
2022/07/27 06:48:02;;;;;;;;;;;20.50;99.60;;;20.18;57.57;101192.53;4955373;28;20045;-80
2022/07/27 06:50:29;;;;;;;9.82;1.60;;;20.50;98.70;;;19.91;57.53;101187.53;4951329;28;19960;-80
2022/07/27 06:52:54;;;;;;;10.07;1.70;;;20.30;98.60;;;19.53;57.98;101191.34;4963485;28;20033;-79
2022/07/27 06:55:20;;;;;;;19.60;1.92;;;20.20;98.90;;;19.57;58.07;101195.50;4948081;28;20119;-81
2022/07/27 06:57:50;;;;;;;;;;;20.20;98.90;;;21.45;54.35;101198.16;4939882;28;20042;-80
2022/07/27 07:00:16;;;;;;;8.88;1.85;;;21.40;97.70;;;22.65;50.99;101202.91;4975969;28;19918;-80
2022/07/27 07:03:01;;;;;;;8.88;1.70;;;22.40;96.70;;;23.71;48.53;101206.56;4929183;28;20037;-80
2022/07/27 07:05:32;;;;;;;12.88;1.77;;;23.20;95.00;;;23.84;47.71;101204.44;4923698;28;20035;-82
2022/07/27 07:07:59;;;;;;;9.55;1.70;;;23.40;94.60;;;23.12;49.41;101201.28;4916658;28;21208;-81
2022/07/27 07:10:26;;;;;;;11.85;2.00;;;23.20;94.70;;;22.72;50.12;101202.22;4963445;28;20522;-81
2022/07/27 07:12:54;;;;;;;11.50;1.50;;;23.00;94.00;;;22.57;50.01;101208.97;4939875;28;20043;-80
2022/07/27 07:15:28;;;;;;;9.43;1.90;;;22.90;94.00;;;22.31;50.62;101209.47;4953499;28;20421;-81
2022/07/27 07:17:54;;;;;;;11.63;1.60;;;22.60;94.50;;;21.79;51.68;101208.66;4933569;28;20022;-80
2022/07/27 07:20:20;;;;;;;12.80;1.60;;;22.20;94.80;;;21.22;52.63;101209.91;4952177;28;20054;-81
2022/07/27 07:22:45;;;;;;;12.32;1.83;;;21.90;95.00;;;20.82;53.73;101208.75;4909628;28;20042;-80
2022/07/27 07:25:11;;;;;;;;;;;21.50;95.70;;;20.50;54.01;101211.34;4925575;28;20041;-81
2022/07/27 07:27:42;;;;;;;9.52;1.60;;;21.40;95.90;;;20.85;53.83;101213.81;4933192;28;19953;-80
2022/07/27 07:30:08;;;;;;;6.18;1.60;;;21.50;96.00;;;21.47;52.59;101216.78;4956740;28;20030;-82
2022/07/27 07:32:34;;;;;;;10.82;1.50;;;21.70;95.60;;;21.28;52.73;101217.44;4913709;28;20039;-80
2022/07/27 07:35:02;;;;;;;11.38;1.52;;;21.60;95.30;;;20.77;53.16;101218.94;4961461;28;20068;-81
2022/07/27 07:37:28;;;;;;;8.27;1.63;;;21.30;95.60;;;20.18;54.54;101222.78;4951109;28;20396;-82
2022/07/27 07:40:03;;;;;;;14.93;2.10;;;20.80;96.10;;;19.61;55.44;101218.28;4953422;28;20121;-80
2022/07/27 07:42:28;;;;;;;12.32;1.67;;;20.40;96.70;;;19.16;57.36;101228.84;4944546;28;20058;-82
2022/07/27 07:44:54;;;;;;;;;;;20.30;97.30;;;18.82;57.29;101220.66;4975390;28;20096;-80
2022/07/27 07:47:26;;;;;;;15.88;1.70;;;19.80;96.80;;;18.80;57.42;101214.59;4965012;28;20072;-81
2022/07/27 07:49:52;;;;;;;12.60;1.90;;;19.70;97.40;;;18.87;57.86;101220.31;4946988;28;20059;-81
2022/07/27 07:52:18;;;;;;;16.27;1.63;;;19.70;98.10;;;18.95;58.19;101212.63;4952637;28;20058;-80
2022/07/27 07:54:43;;;;;;;;;;;19.70;98.60;;;18.99;57.55;101216.75;4964199;28;20034;-80
2022/07/27 07:57:09;;;;;;;8.40;1.70;;;19.80;98.10;;;19.21;57.48;101216.00;4941366;28;19920;-80
2022/07/27 07:59:35;;;;;;;;;;;19.80;98.50;;;19.17;57.20;101218.03;4946383;28;20046;-80
2022/07/27 08:02:03;;;;;;;15.55;1.67;;;20.00;98.00;;;19.44;57.27;101225.78;4952954;28;19928;-82
2022/07/27 08:04:31;;;;;;;6.97;1.52;;;20.10;97.80;;;19.65;56.21;101230.44;4926324;28;20030;-82
2022/07/27 08:06:56;;;;;;;17.45;2.13;;;20.40;97.80;;;20.35;55.72;101239.31;4939297;28;20034;-81
2022/07/27 08:09:25;;;;;;;9.43;1.75;;;20.80;97.50;;;20.99;54.28;101230.56;4927486;28;20203;-81
2022/07/27 08:11:51;;;;;;;13.48;1.60;;;21.30;96.70;;;21.34;52.73;101243.72;4978389;28;20053;-81
2022/07/27 08:14:26;;;;;;;9.75;1.70;;;21.60;96.30;;;21.28;53.03;101247.75;4942857;28;20030;-79
2022/07/27 08:16:52;;;;;;;11.10;1.75;;;21.50;95.90;;;20.94;53.42;101255.03;4956357;28;20069;-80
2022/07/27 08:19:18;;;;;;;11.82;1.90;;;21.40;95.70;;;20.73;54.05;101248.75;4961775;28;20049;-81
2022/07/27 08:21:44;;;;;;;7.40;1.70;;;21.20;96.30;;;20.37;55.18;101253.41;4925784;28;20053;-79
2022/07/27 08:24:10;;;;;;;;;;;21.20;96.80;;;20.09;54.00;101252.91;4971599;28;20053;-80
2022/07/27 08:26:38;;;;;;;16.35;1.85;;;20.90;95.80;;;19.99;54.79;101247.44;4960343;28;19921;-81
2022/07/27 08:29:04;;;;;;;15.88;2.15;;;20.70;96.10;;;19.82;55.44;101256.75;4925777;28;21162;-81
2022/07/27 08:31:29;;;;;;;13.05;1.77;;;20.50;96.00;;;19.53;55.45;101252.78;4955540;28;20380;-81
2022/07/27 08:33:55;;;;;;;18.13;2.67;;;20.30;96.40;;;19.24;56.02;101262.03;4978645;28;20037;-81
2022/07/27 08:36:21;;;;;;;;;;;20.20;96.70;;;18.70;58.88;101277.53;4937713;28;20402;-80
2022/07/27 08:38:47;;;;;;;17.40;2.45;;;19.50;99.60;;;18.13;62.42;101281.56;4936704;28;19914;-80
2022/07/27 08:41:18;;;;;;;10.32;1.63;;;19.10;99.90;;;17.78;65.49;101282.16;4956206;28;20137;-79
2022/07/27 08:43:46;;;;;;;10.38;2.10;;;18.90;99.90;;;17.67;66.67;101276.69;4952920;28;20042;-80
2022/07/27 08:46:18;;;;;;;6.88;1.65;;;18.60;99.90;;;17.57;67.39;101277.31;4952895;28;20481;-80
2022/07/27 08:48:48;;;;;;;12.48;2.25;;;18.50;99.90;;;17.73;68.61;101263.84;4963744;28;20038;-81
2022/07/27 08:51:14;;;;;;;8.02;1.63;;;18.60;99.90;;;17.94;67.68;101260.69;4960265;28;20035;-80
2022/07/27 08:53:40;;;;;;;8.93;1.63;;;18.70;99.90;;;18.24;67.16;101261.19;4974406;28;20031;-79
2022/07/27 08:56:05;;;;;;;;;;;18.90;99.90;;;18.55;66.02;101256.38;4969954;28;20390;-79
2022/07/27 08:58:31;;;;;;;8.98;2.05;;;19.20;99.90;;;18.97;63.08;101262.22;4976284;28;19918;-79
2022/07/27 09:01:04;;;;;;;;;;;19.20;99.90;;;19.36;61.93;101259.38;4964638;28;20092;-80
2022/07/27 09:03:31;;;;;;;8.85;1.45;;;19.90;99.90;;;19.81;60.99;101260.41;4967244;28;19922;-80
2022/07/27 09:05:57;;;;;;;6.88;1.25;;;20.20;99.90;;;20.22;58.13;101266.16;4942643;28;20041;-79
2022/07/27 09:08:34;;;;;;;10.82;1.92;;;20.60;99.70;;;20.55;57.41;101261.78;4962434;28;20046;-79
2022/07/27 09:11:02;;;;;;;11.82;1.48;;;20.90;98.60;;;20.67;56.47;101263.50;4944583;28;20042;-82
2022/07/27 09:13:35;;;;;;;14.80;1.90;;;20.90;98.30;;;20.32;56.88;101264.44;4957502;28;20038;-79
2022/07/27 09:16:11;;;;;;;12.38;1.80;;;20.80;98.60;;;20.14;58.27;101263.25;4936689;28;20035;-79
2022/07/27 09:18:40;;;;;;;;;;;20.80;99.20;;;19.97;57.29;101265.41;4959346;28;20065;-81
2022/07/27 09:21:22;;;;;;;11.60;1.23;;;20.60;97.10;;;19.64;57.31;101269.69;4947478;28;19922;-79
2022/07/27 09:24:13;;;;;;;8.15;1.23;;;20.10;98.40;;;18.87;59.16;101269.19;4926806;28;20514;-80
2022/07/27 09:26:42;;;;;;;9.13;1.48;;;19.80;97.80;;;18.58;59.72;101274.81;4956625;28;20035;-80
2022/07/27 09:29:18;;;;;;;7.97;1.40;;;19.60;98.90;;;18.62;60.35;101278.13;4963714;28;20037;-80
2022/07/27 09:31:51;;;;;;;16.80;2.00;;;19.50;99.40;;;18.51;60.86;101270.88;4956147;28;20034;-79
2022/07/27 09:34:38;;;;;;;6.32;2.00;;;19.00;99.90;;;17.55;64.11;101273.91;4970019;28;20035;-80
2022/07/27 09:37:05;;;;;;;;;;;18.70;99.90;;;17.21;65.77;101267.31;4972913;28;20033;-78
2022/07/27 09:39:31;;;;;;;7.28;1.15;;;18.30;99.90;;;16.83;67.10;101281.31;4984688;28;19969;-79
2022/07/27 09:42:00;;;;;;;8.48;1.20;;;17.90;99.90;;;16.48;68.91;101272.84;4957346;28;20080;-82
2022/07/27 09:44:41;;;;;;;7.47;1.20;;;17.70;99.90;;;16.36;69.83;101266.53;4950303;28;20500;-81
2022/07/27 09:47:28;;;;;;;7.68;1.27;;;17.60;99.90;;;16.50;70.34;101268.31;4978586;28;20057;-80
2022/07/27 09:50:26;;;;;;;7.40;1.77;;;17.50;99.90;;;16.46;69.92;101269.44;4969708;28;20508;-80
2022/07/27 09:52:52;;;;;;;10.60;1.60;;;17.60;99.90;;;16.74;70.29;101276.56;4970379;28;20397;-79
2022/07/27 09:55:26;;;;;;;;;;;17.60;99.90;;;16.66;68.54;101266.41;4983922;28;20033;-80
2022/07/27 09:57:56;;;;;;;18.02;1.90;;;17.70;99.90;;;16.86;68.87;101259.81;4973161;28;20362;-81
2022/07/27 10:00:35;;;;;;;13.20;1.70;;;17.80;99.90;;;17.10;66.84;101256.53;4962132;28;20510;-80
2022/07/27 10:03:02;;;;;;;8.40;1.45;;;18.00;99.90;;;17.49;65.75;101241.53;4972121;28;20034;-79
2022/07/27 10:05:31;;;;;;;9.02;1.33;;;18.30;99.90;;;18.14;63.91;101237.97;4978051;28;20029;-80
2022/07/27 10:07:59;;;;;;;9.25;1.42;;;18.80;99.90;;;18.79;62.32;101243.09;4965156;28;20069;-80
2022/07/27 10:10:28;;;;;;;9.27;1.58;;;19.30;99.90;;;19.34;58.70;101239.97;4988175;28;20060;-79
2022/07/27 10:13:03;;;;;;;6.93;1.35;;;19.90;99.90;;;19.85;58.00;101240.50;4990367;28;20117;-80
2022/07/27 10:15:30;;;;;;;11.10;1.33;;;20.30;98.30;;;20.43;55.78;101242.19;4969161;28;20042;-81
2022/07/27 10:18:14;;;;;;;8.48;1.33;;;20.90;97.80;;;21.17;54.42;101233.56;4972434;28;20065;-79
2022/07/27 10:20:46;;;;;;;8.80;1.30;;;21.40;96.50;;;21.53;52.52;101248.38;4950266;28;20118;-80
2022/07/27 10:23:29;;;;;;;8.93;1.38;;;21.90;95.80;;;21.98;51.36;101237.38;4966784;28;20071;-81
2022/07/27 10:26:19;;;;;;;6.05;1.40;;;22.30;95.70;;;22.47;50.48;101240.31;4947406;28;20034;-80